Pagrindinis puslapis
METAR-TAF:

METAR-TAF

Oro uostai :

Kajanis, Suomija

platuma: 64-17N, ilguma: 027-41E, Aukštis: 143 m

Dabartinis oras

Ataskaita buvo paskelbta 1 valandą ir 12 minutes, ne 06:20 UTC
Vėjas 6 kt iš Rytų/Pietryčių, svyruoja nuo Rytų ir Pietų
Temperatūra 3°C
Drėgmė 65%
Slėgis 1015 hPa
Matomumas 10 km arba daugiau
Apsiniaukę ne aukštis 4200 ft

METAR: EFKI 250620Z AUTO 12006KT 090V170 9999 OVC042 03/M03 Q1015

Laikas: 10:32 (07:32 UTC)

Prognozė

Ataskaita buvo paskelbta 2 valandos ir 2 minutes, ne 05:30 UTC
Prognozė galioja nuo 25 metu 06 UTC su 25 metu 15 UTC
Vėjas 7 kt iš Rytų/Pietryčių
Matomumas 10 km arba daugiau
Su prošvaistėmis ne aukštis 4000 ft

TAF: EFKI 250530Z 2506/2515 11007KT 9999 BKN040

Orai ataskaitas ir orų prognozės (METAR, TAF).

turimą stotys yra geltonos ir raudonos taškus žemėlapyje.

Perkelti pele per norėdami pamatyti stoties vardą.

Tada spustelėkite, norėdami matyti oro stebėjimo ir prognozės.

Norėdami pakeisti žemėlapį: spustelėkite ant žalios mygtukų su juodo kryžiaus žemyn,; žalią mygtuką su brūkšneliu, jei norite nutolinti; arba žalių rodyklių gretimoms žemėlapius.


METAR-TAF: